Time;durP1;ratioP1;P1;durP2;ratioP2;P2;SDS_P1;SDS_P2;PMS_P1;PMS_P2;Temp;Humidity;BMP_temperature;BMP_pressure;BME280_temperature;BME280_humidity;BME280_pressure;Samples;Min_cycle;Max_cycle;Signal;HPM_P1;HPM_P2
2023/03/06 00:00:52;;;;;;;;;15.33;12.00;;;;;;;;119906;1190;24818;-63
2023/03/06 00:03:22;;;;;;;;;13.75;13.25;;;;;;;;119945;1190;24709;-63
2023/03/06 00:05:54;;;;;;;;;16.33;12.67;;;;;;;;119738;1190;25349;-63
2023/03/06 00:08:23;;;;;;;;;15.50;13.50;;;;;;;;119932;1190;25243;-63
2023/03/06 00:10:52;;;;;;;;;19.50;14.00;;;;;;;;119911;1182;25076;-63
2023/03/06 00:13:21;;;;;;;;;17.00;14.00;;;;;;;;119912;1190;25199;-64
2023/03/06 00:15:50;;;;;;;;;15.00;12.25;;;;;;;;119943;1190;25237;-64
2023/03/06 00:18:19;;;;;;;;;15.75;12.25;;;;;;;;120115;1182;24735;-64
2023/03/06 00:20:48;;;;;;;;;15.33;12.00;;;;;;;;119996;1190;25645;-64
2023/03/06 00:23:16;;;;;;;;;15.33;12.67;;;;;;;;119928;1190;25724;-64
2023/03/06 00:25:45;;;;;;;;;15.00;13.33;;;;;;;;119756;1190;26012;-63
2023/03/06 00:28:14;;;;;;;;;13.00;13.00;;;;;;;;119950;1190;25314;-64
2023/03/06 00:30:44;;;;;;;;;17.50;13.75;;;;;;;;119930;1190;25203;-63
2023/03/06 00:33:13;;;;;;;;;13.67;10.67;;;;;;;;119985;1181;25047;-63
2023/03/06 00:35:42;;;;;;;;;13.75;13.25;;;;;;;;120077;1190;25508;-64
2023/03/06 00:38:11;;;;;;;;;12.33;10.67;;;;;;;;119892;1190;25020;-64
2023/03/06 00:40:40;;;;;;;;;15.67;15.00;;;;;;;;119749;1183;26304;-63
2023/03/06 00:43:09;;;;;;;;;16.00;13.25;;;;;;;;119942;1190;25428;-63
2023/03/06 00:45:38;;;;;;;;;13.00;13.00;;;;;;;;119917;1190;24975;-63
2023/03/06 00:48:06;;;;;;;;;14.00;12.75;;;;;;;;119900;1190;24876;-64
2023/03/06 00:50:35;;;;;;;;;10.67;9.00;;;;;;;;119913;1182;25664;-64
2023/03/06 00:53:03;;;;;;;;;12.33;10.67;;;;;;;;119932;1190;24904;-63
2023/03/06 00:55:32;;;;;;;;;12.00;11.00;;;;;;;;119956;1181;25671;-63
2023/03/06 00:58:00;;;;;;;;;17.00;15.25;;;;;;;;119944;1190;25442;-64
2023/03/06 01:00:28;;;;;;;;;14.00;11.50;;;;;;;;119906;1190;25546;-63
2023/03/06 01:02:57;;;;;;;;;16.00;14.00;;;;;;;;119903;1187;25235;-63
2023/03/06 01:05:25;;;;;;;;;16.50;13.50;;;;;;;;119935;1190;25119;-63
2023/03/06 01:07:53;;;;;;;;;9.67;8.33;;;;;;;;119961;1182;25020;-63
2023/03/06 01:10:21;;;;;;;;;12.50;12.50;;;;;;;;119946;1190;25415;-63
2023/03/06 01:12:50;;;;;;;;;10.25;10.25;;;;;;;;119898;1190;25594;-63
2023/03/06 01:15:18;;;;;;;;;15.50;11.25;;;;;;;;119932;1190;24924;-63
2023/03/06 01:17:46;;;;;;;;;14.25;9.75;;;;;;;;119930;1182;24880;-64
2023/03/06 01:20:17;;;;;;;;;13.25;12.50;;;;;;;;119892;1190;24777;-64
2023/03/06 01:22:45;;;;;;;;;13.00;13.00;;;;;;;;119905;1190;24739;-64
2023/03/06 01:25:13;;;;;;;;;15.50;11.25;;;;;;;;119930;1190;25500;-63
2023/03/06 01:27:42;;;;;;;;;17.25;13.00;;;;;;;;119912;1190;25875;-64
2023/03/06 01:30:11;;;;;;;;;11.00;9.50;;;;;;;;119935;1190;25023;-64
2023/03/06 01:32:39;;;;;;;;;11.75;9.50;;;;;;;;119924;1190;25037;-63
2023/03/06 01:35:08;;;;;;;;;14.50;12.25;;;;;;;;119922;1182;25499;-63
2023/03/06 01:37:36;;;;;;;;;13.50;13.00;;;;;;;;119918;1190;25735;-64
2023/03/06 01:40:08;;;;;;;;;12.33;11.00;;;;;;;;119901;1190;25443;-63
2023/03/06 01:42:36;;;;;;;;;14.00;12.50;;;;;;;;119897;1190;25709;-63
2023/03/06 01:45:10;;;;;;;;;12.00;10.67;;;;;;;;119997;1190;25220;-63
2023/03/06 01:47:38;;;;;;;;;12.00;11.25;;;;;;;;120121;1190;25012;-63
2023/03/06 01:50:10;;;;;;;;;14.50;11.50;;;;;;;;119975;1183;25440;-64
2023/03/06 01:52:46;;;;;;;;;11.50;11.50;;;;;;;;119967;1190;25661;-63
2023/03/06 01:55:20;;;;;;;;;12.00;10.25;;;;;;;;119957;1190;24913;-63
2023/03/06 01:57:52;;;;;;;;;12.25;10.25;;;;;;;;119958;1190;25196;-64
2023/03/06 02:00:23;;;;;;;;;10.50;10.50;;;;;;;;119923;1182;25652;-63
2023/03/06 02:02:59;;;;;;;;;12.00;9.33;;;;;;;;119908;1190;25661;-63
2023/03/06 02:05:27;;;;;;;;;9.25;7.75;;;;;;;;119933;1182;25420;-63
2023/03/06 02:07:56;;;;;;;;;10.75;10.75;;;;;;;;119958;1182;25467;-64
2023/03/06 02:10:24;;;;;;;;;12.00;10.00;;;;;;;;119911;1182;25599;-63
2023/03/06 02:12:53;;;;;;;;;10.50;9.25;;;;;;;;119917;1190;25131;-63
2023/03/06 02:15:26;;;;;;;;;9.67;9.67;;;;;;;;119922;1190;24886;-65
2023/03/06 02:17:54;;;;;;;;;9.00;9.00;;;;;;;;119944;1181;25576;-63
2023/03/06 02:20:44;;;;;;;;;10.50;8.50;;;;;;;;119917;1190;24982;-63
2023/03/06 02:23:33;;;;;;;;;8.33;6.67;;;;;;;;119949;1182;25576;-63
2023/03/06 02:26:02;;;;;;;;;8.00;6.50;;;;;;;;119944;1182;25020;-64
2023/03/06 02:28:30;;;;;;;;;11.50;9.25;;;;;;;;119914;1190;24890;-64
2023/03/06 02:30:59;;;;;;;;;11.50;8.50;;;;;;;;119929;1190;24990;-64
2023/03/06 02:33:28;;;;;;;;;9.75;9.50;;;;;;;;119943;1190;24936;-63
2023/03/06 02:36:15;;;;;;;;;10.33;8.00;;;;;;;;120133;1190;25375;-63
2023/03/06 02:38:48;;;;;;;;;10.67;8.33;;;;;;;;120118;1190;25537;-63
2023/03/06 02:41:16;;;;;;;;;9.33;9.00;;;;;;;;119941;1190;24724;-64
2023/03/06 02:43:46;;;;;;;;;10.33;9.00;;;;;;;;119957;1182;24803;-63
2023/03/06 02:46:14;;;;;;;;;10.00;9.00;;;;;;;;119935;1190;25149;-63
2023/03/06 02:48:42;;;;;;;;;8.00;6.50;;;;;;;;120103;1181;25043;-63
2023/03/06 02:51:11;;;;;;;;;10.75;8.75;;;;;;;;119922;1190;24972;-63
2023/03/06 02:53:39;;;;;;;;;10.00;8.00;;;;;;;;119924;1190;25298;-64
2023/03/06 02:56:07;;;;;;;;;12.25;10.50;;;;;;;;119875;1190;24933;-63
2023/03/06 02:58:35;;;;;;;;;12.75;8.00;;;;;;;;119908;1190;25791;-63
2023/03/06 03:01:04;;;;;;;;;12.00;11.00;;;;;;;;119885;1186;24861;-63
2023/03/06 03:03:32;;;;;;;;;9.00;7.00;;;;;;;;119936;1187;25180;-63
2023/03/06 03:06:03;;;;;;;;;10.67;9.00;;;;;;;;119906;1182;25226;-63
2023/03/06 03:08:32;;;;;;;;;8.67;8.67;;;;;;;;119928;1190;25234;-63
2023/03/06 03:11:00;;;;;;;;;8.00;8.00;;;;;;;;120107;1190;25433;-63
2023/03/06 03:13:29;;;;;;;;;10.25;9.25;;;;;;;;119929;1190;24979;-64
2023/03/06 03:16:05;;;;;;;;;8.50;8.50;;;;;;;;120116;1189;25293;-64
2023/03/06 03:18:34;;;;;;;;;12.67;10.33;;;;;;;;120118;1190;24871;-64
2023/03/06 03:21:07;;;;;;;;;11.00;9.75;;;;;;;;119954;1183;25464;-64
2023/03/06 03:23:35;;;;;;;;;10.33;10.33;;;;;;;;120101;1190;25142;-64
2023/03/06 03:26:21;;;;;;;;;9.50;9.50;;;;;;;;120107;1190;25711;-64
2023/03/06 03:28:50;;;;;;;;;11.00;5.75;;;;;;;;120099;1190;26470;-64
2023/03/06 03:31:18;;;;;;;;;8.67;8.67;;;;;;;;120126;1190;24777;-64
2023/03/06 03:33:46;;;;;;;;;12.25;10.25;;;;;;;;120121;1190;25229;-64
2023/03/06 03:36:14;;;;;;;;;10.00;10.00;;;;;;;;120111;1190;25112;-64
2023/03/06 03:38:42;;;;;;;;;12.75;10.00;;;;;;;;120117;1190;25848;-64
2023/03/06 03:41:10;;;;;;;;;13.33;9.67;;;;;;;;120052;1190;25102;-64
2023/03/06 03:43:38;;;;;;;;;9.50;9.00;;;;;;;;119933;1190;24849;-64
2023/03/06 03:46:06;;;;;;;;;7.00;6.67;;;;;;;;119937;1181;25006;-64
2023/03/06 03:48:35;;;;;;;;;14.00;10.33;;;;;;;;119931;1190;25073;-64
2023/03/06 03:51:08;;;;;;;;;11.25;9.00;;;;;;;;119894;1190;25310;-64
2023/03/06 03:53:36;;;;;;;;;10.00;8.00;;;;;;;;119891;1190;25677;-64
2023/03/06 03:56:05;;;;;;;;;8.67;7.67;;;;;;;;119723;1190;24995;-64
2023/03/06 03:58:33;;;;;;;;;5.00;5.00;;;;;;;;119942;1190;25005;-64
2023/03/06 04:01:01;;;;;;;;;10.25;10.25;;;;;;;;119965;1183;25188;-65
2023/03/06 04:03:30;;;;;;;;;10.00;7.25;;;;;;;;120122;1182;25348;-65
2023/03/06 04:05:58;;;;;;;;;12.25;10.00;;;;;;;;120105;1190;24743;-64
2023/03/06 04:08:27;;;;;;;;;7.00;7.00;;;;;;;;119931;1190;24737;-64
2023/03/06 04:10:55;;;;;;;;;9.00;9.00;;;;;;;;119948;1190;24957;-64
2023/03/06 04:13:23;;;;;;;;;9.00;9.00;;;;;;;;120095;1186;25345;-64
2023/03/06 04:15:53;;;;;;;;;12.00;10.00;;;;;;;;119921;1182;25241;-64
2023/03/06 04:18:22;;;;;;;;;10.50;9.00;;;;;;;;119902;1187;25542;-64
2023/03/06 04:20:50;;;;;;;;;10.25;8.75;;;;;;;;119889;1190;25282;-64
2023/03/06 04:23:19;;;;;;;;;12.00;10.00;;;;;;;;119906;1190;24795;-63
2023/03/06 04:25:47;;;;;;;;;9.75;6.25;;;;;;;;119903;1190;24928;-64
2023/03/06 04:28:15;;;;;;;;;9.00;8.00;;;;;;;;119927;1190;25369;-64
2023/03/06 04:30:44;;;;;;;;;11.67;9.00;;;;;;;;119938;1190;24825;-64
2023/03/06 04:33:12;;;;;;;;;9.75;8.25;;;;;;;;119892;1190;24964;-63
2023/03/06 04:35:40;;;;;;;;;10.00;8.00;;;;;;;;120119;1190;25071;-64
2023/03/06 04:38:08;;;;;;;;;9.33;8.67;;;;;;;;120103;1190;25540;-64
2023/03/06 04:40:36;;;;;;;;;7.67;7.67;;;;;;;;120116;1190;24884;-64
2023/03/06 04:43:05;;;;;;;;;8.33;8.33;;;;;;;;120118;1182;24840;-64
2023/03/06 04:45:33;;;;;;;;;9.25;8.00;;;;;;;;120117;1189;25521;-64
2023/03/06 04:48:02;;;;;;;;;10.00;8.67;;;;;;;;119943;1190;24979;-65
2023/03/06 04:50:31;;;;;;;;;6.00;4.50;;;;;;;;119944;1190;25465;-63
2023/03/06 04:53:00;;;;;;;;;7.00;6.00;;;;;;;;119935;1190;25076;-64
2023/03/06 04:55:29;;;;;;;;;12.00;10.00;;;;;;;;119740;1190;24977;-64
2023/03/06 04:57:57;;;;;;;;;12.00;10.50;;;;;;;;119922;1190;25037;-64
2023/03/06 05:00:29;;;;;;;;;7.50;6.25;;;;;;;;119908;1182;25640;-64
2023/03/06 05:03:01;;;;;;;;;11.00;10.00;;;;;;;;119709;1190;25558;-63
2023/03/06 05:05:29;;;;;;;;;7.25;7.25;;;;;;;;119731;1190;25443;-63
2023/03/06 05:07:57;;;;;;;;;8.50;7.25;;;;;;;;120079;1189;24932;-63
2023/03/06 05:10:25;;;;;;;;;11.50;9.00;;;;;;;;120109;1190;25286;-62
2023/03/06 05:12:53;;;;;;;;;10.00;10.00;;;;;;;;120130;1182;25622;-63
2023/03/06 05:15:22;;;;;;;;;9.75;7.75;;;;;;;;120107;1182;25512;-63
2023/03/06 05:17:50;;;;;;;;;13.00;10.50;;;;;;;;119957;1190;25029;-63
2023/03/06 05:20:18;;;;;;;;;10.67;6.00;;;;;;;;120114;1190;25166;-63
2023/03/06 05:22:46;;;;;;;;;9.50;9.00;;;;;;;;120033;1182;25457;-63
2023/03/06 05:25:15;;;;;;;;;7.00;7.00;;;;;;;;119936;1190;25570;-63
2023/03/06 05:27:43;;;;;;;;;6.33;4.33;;;;;;;;119894;1190;25585;-63
2023/03/06 05:30:13;;;;;;;;;5.00;5.00;;;;;;;;119891;1182;24895;-63
2023/03/06 05:32:41;;;;;;;;;6.67;6.67;;;;;;;;119752;1190;25091;-63
2023/03/06 05:35:16;;;;;;;;;11.00;10.00;;;;;;;;119918;1182;25729;-63
2023/03/06 05:37:45;;;;;;;;;10.50;8.75;;;;;;;;119926;1190;25559;-63
2023/03/06 05:40:15;;;;;;;;;8.00;7.00;;;;;;;;119911;1190;25277;-63
2023/03/06 05:42:43;;;;;;;;;10.00;9.00;;;;;;;;119897;1190;25021;-63
2023/03/06 05:45:11;;;;;;;;;9.00;7.75;;;;;;;;119930;1190;24934;-63
2023/03/06 05:47:39;;;;;;;;;9.00;8.00;;;;;;;;119926;1190;24865;-63
2023/03/06 05:50:09;;;;;;;;;11.50;10.00;;;;;;;;119927;1182;25439;-63
2023/03/06 05:52:38;;;;;;;;;12.75;7.75;;;;;;;;119751;1190;25037;-63
2023/03/06 05:55:08;;;;;;;;;5.00;5.00;;;;;;;;119907;1190;25657;-63
2023/03/06 05:57:37;;;;;;;;;10.00;8.75;;;;;;;;119898;1182;25080;-62
2023/03/06 06:00:06;;;;;;;;;9.00;7.00;;;;;;;;119944;1181;25711;-61
2023/03/06 06:02:34;;;;;;;;;10.33;8.00;;;;;;;;119877;1190;24869;-62
2023/03/06 06:05:03;;;;;;;;;10.00;8.00;;;;;;;;119936;1190;25564;-62
2023/03/06 06:07:31;;;;;;;;;9.67;7.00;;;;;;;;119874;1190;25208;-63
2023/03/06 06:09:59;;;;;;;;;9.00;9.00;;;;;;;;119888;1190;24825;-62
2023/03/06 06:12:31;;;;;;;;;7.33;7.33;;;;;;;;119929;1190;25900;-62
2023/03/06 06:14:59;;;;;;;;;7.67;6.33;;;;;;;;119907;1182;25542;-62
2023/03/06 06:17:27;;;;;;;;;6.00;6.00;;;;;;;;119894;1190;25421;-63
2023/03/06 06:19:55;;;;;;;;;8.25;8.25;;;;;;;;119932;1190;25247;-62
2023/03/06 06:22:23;;;;;;;;;12.75;9.50;;;;;;;;119931;1190;25241;-63
2023/03/06 06:24:51;;;;;;;;;9.67;9.67;;;;;;;;120061;1190;25449;-63
2023/03/06 06:27:20;;;;;;;;;12.67;7.00;;;;;;;;120102;1190;25768;-63
2023/03/06 06:29:50;;;;;;;;;11.25;10.00;;;;;;;;120113;1182;25093;-63
2023/03/06 06:32:18;;;;;;;;;13.75;9.50;;;;;;;;120107;1190;25179;-63
2023/03/06 06:34:46;;;;;;;;;12.50;10.25;;;;;;;;120133;1190;25328;-63
2023/03/06 06:37:15;;;;;;;;;8.25;5.75;;;;;;;;120029;1177;24750;-62
2023/03/06 06:39:43;;;;;;;;;11.25;9.75;;;;;;;;119917;1190;25698;-63
2023/03/06 06:42:11;;;;;;;;;10.67;9.33;;;;;;;;120091;1177;25401;-63
2023/03/06 06:44:59;;;;;;;;;12.50;10.25;;;;;;;;119986;1186;24992;-61
2023/03/06 06:47:28;;;;;;;;;15.25;10.75;;;;;;;;119928;1190;25449;-61
2023/03/06 06:49:56;;;;;;;;;8.75;7.75;;;;;;;;120109;1189;25121;-62
2023/03/06 06:52:25;;;;;;;;;10.75;8.25;;;;;;;;120026;1190;24839;-61
2023/03/06 06:54:53;;;;;;;;;10.50;8.00;;;;;;;;119952;1182;25551;-68
2023/03/06 06:57:21;;;;;;;;;10.33;8.67;;;;;;;;119930;1190;25620;-64
2023/03/06 06:59:50;;;;;;;;;14.00;11.00;;;;;;;;120064;1179;25323;-62
2023/03/06 07:02:21;;;;;;;;;14.50;8.00;;;;;;;;119972;1190;26316;-64
2023/03/06 07:04:49;;;;;;;;;12.00;9.33;;;;;;;;119889;1182;25473;-63
2023/03/06 07:07:36;;;;;;;;;13.00;10.00;;;;;;;;120104;1182;25346;-64
2023/03/06 07:10:06;;;;;;;;;14.00;11.75;;;;;;;;119945;1182;25793;-60
2023/03/06 07:12:35;;;;;;;;;11.00;9.00;;;;;;;;119927;1187;25612;-61
2023/03/06 07:15:05;;;;;;;;;12.00;10.75;;;;;;;;120098;1190;25276;-60
2023/03/06 07:17:33;;;;;;;;;11.67;10.33;;;;;;;;119924;1182;25593;-58
2023/03/06 07:20:01;;;;;;;;;9.00;8.00;;;;;;;;120008;1182;25193;-61
2023/03/06 07:22:29;;;;;;;;;11.67;10.67;;;;;;;;119938;1190;26046;-58
2023/03/06 07:25:15;;;;;;;;;13.50;10.50;;;;;;;;119907;1190;24933;-57
2023/03/06 07:27:43;;;;;;;;;14.25;8.75;;;;;;;;119931;1190;25042;-58
2023/03/06 07:30:21;;;;;;;;;17.00;9.33;;;;;;;;119944;1181;24693;-57
2023/03/06 07:32:55;;;;;;;;;18.00;12.75;;;;;;;;119891;1182;25593;-58
2023/03/06 07:35:23;;;;;;;;;12.75;10.50;;;;;;;;119948;1182;24933;-58
2023/03/06 07:37:52;;;;;;;;;18.00;12.00;;;;;;;;119916;1187;25241;-59
2023/03/06 07:40:21;;;;;;;;;15.00;9.00;;;;;;;;119947;1177;25810;-59
2023/03/06 07:42:52;;;;;;;;;14.50;12.00;;;;;;;;120094;1190;24782;-56
2023/03/06 07:45:21;;;;;;;;;15.25;12.00;;;;;;;;120101;1190;25000;-56
2023/03/06 07:47:50;;;;;;;;;16.00;10.50;;;;;;;;119958;1182;24900;-56
2023/03/06 07:50:19;;;;;;;;;12.33;10.33;;;;;;;;119946;1190;25092;-55
2023/03/06 07:52:49;;;;;;;;;10.75;9.25;;;;;;;;119963;1190;24881;-56
2023/03/06 07:55:17;;;;;;;;;11.00;9.33;;;;;;;;119952;1190;25103;-58
2023/03/06 07:57:48;;;;;;;;;12.75;11.00;;;;;;;;120110;1189;24772;-58
2023/03/06 08:00:17;;;;;;;;;12.50;9.25;;;;;;;;119954;1190;24720;-58
2023/03/06 08:02:45;;;;;;;;;8.50;5.25;;;;;;;;119943;1190;25312;-58
2023/03/06 08:05:15;;;;;;;;;16.33;12.33;;;;;;;;120089;1190;25942;-58
2023/03/06 08:07:44;;;;;;;;;11.33;10.00;;;;;;;;119937;1189;25519;-58
2023/03/06 08:10:14;;;;;;;;;14.50;11.75;;;;;;;;119946;1190;25206;-58
2023/03/06 08:12:42;;;;;;;;;8.50;8.50;;;;;;;;119929;1182;25064;-58
2023/03/06 08:15:12;;;;;;;;;12.50;11.00;;;;;;;;120110;1189;24988;-58
2023/03/06 08:17:40;;;;;;;;;15.25;12.75;;;;;;;;120244;1177;24934;-58
2023/03/06 08:20:09;;;;;;;;;10.25;9.00;;;;;;;;120107;1190;25324;-58
2023/03/06 08:22:38;;;;;;;;;10.25;9.25;;;;;;;;120108;1189;25596;-58
2023/03/06 08:25:07;;;;;;;;;14.75;10.25;;;;;;;;120106;1190;24729;-58
2023/03/06 08:27:35;;;;;;;;;11.67;10.67;;;;;;;;119937;1190;25537;-58
2023/03/06 08:30:04;;;;;;;;;12.50;10.00;;;;;;;;120110;1190;25771;-58
2023/03/06 08:32:35;;;;;;;;;10.67;10.00;;;;;;;;120112;1189;24877;-58
2023/03/06 08:35:04;;;;;;;;;15.50;12.50;;;;;;;;119916;1190;25108;-58
2023/03/06 08:37:32;;;;;;;;;13.00;11.00;;;;;;;;120101;1189;24862;-58
2023/03/06 08:40:03;;;;;;;;;13.33;10.33;;;;;;;;120121;1190;25254;-58
2023/03/06 08:42:31;;;;;;;;;12.25;10.00;;;;;;;;120121;1190;25462;-58
2023/03/06 08:45:00;;;;;;;;;11.67;10.67;;;;;;;;120097;1190;25692;-58
2023/03/06 08:47:28;;;;;;;;;13.25;11.50;;;;;;;;119955;1190;25618;-58
2023/03/06 08:49:57;;;;;;;;;11.25;10.25;;;;;;;;120124;1182;25491;-58
2023/03/06 08:52:27;;;;;;;;;14.50;11.50;;;;;;;;119948;1182;25361;-58
2023/03/06 08:54:56;;;;;;;;;15.00;11.25;;;;;;;;120097;1190;25369;-58
2023/03/06 08:57:25;;;;;;;;;14.67;9.67;;;;;;;;120116;1190;25678;-58
2023/03/06 08:59:53;;;;;;;;;9.00;9.00;;;;;;;;120130;1189;25203;-58
2023/03/06 09:02:21;;;;;;;;;14.00;10.67;;;;;;;;120113;1182;25811;-58
2023/03/06 09:04:50;;;;;;;;;9.75;9.75;;;;;;;;120116;1189;24926;-58
2023/03/06 09:07:18;;;;;;;;;13.50;11.00;;;;;;;;120102;1190;25100;-58
2023/03/06 09:09:46;;;;;;;;;11.33;10.67;;;;;;;;120115;1190;24846;-58
2023/03/06 09:12:14;;;;;;;;;11.25;11.00;;;;;;;;120113;1181;25583;-58
2023/03/06 09:14:43;;;;;;;;;11.00;9.00;;;;;;;;119934;1190;25036;-58
2023/03/06 09:17:11;;;;;;;;;16.50;10.75;;;;;;;;120114;1190;25318;-58
2023/03/06 09:19:39;;;;;;;;;16.50;11.50;;;;;;;;119951;1190;24763;-58
2023/03/06 09:22:07;;;;;;;;;11.25;11.00;;;;;;;;120128;1181;25820;-58
2023/03/06 09:24:35;;;;;;;;;15.67;10.33;;;;;;;;120111;1189;25016;-58
2023/03/06 09:27:03;;;;;;;;;15.50;11.25;;;;;;;;119933;1190;25239;-58
2023/03/06 09:29:32;;;;;;;;;12.00;10.00;;;;;;;;120101;1190;25446;-60
2023/03/06 09:32:00;;;;;;;;;8.50;8.00;;;;;;;;119943;1190;25462;-58
2023/03/06 09:34:28;;;;;;;;;9.50;6.00;;;;;;;;119978;1183;25260;-57
2023/03/06 09:36:57;;;;;;;;;10.67;10.67;;;;;;;;120108;1190;25240;-58
2023/03/06 09:39:25;;;;;;;;;8.33;8.00;;;;;;;;119947;1190;25924;-58
2023/03/06 09:41:56;;;;;;;;;12.33;11.33;;;;;;;;119954;1190;25493;-58
2023/03/06 09:44:27;;;;;;;;;14.50;11.00;;;;;;;;119936;1182;24917;-58
2023/03/06 09:47:07;;;;;;;;;13.25;10.75;;;;;;;;120115;1190;25080;-58
2023/03/06 09:49:55;;;;;;;;;11.00;8.67;;;;;;;;119933;1190;25663;-58
2023/03/06 09:52:35;;;;;;;;;14.00;8.67;;;;;;;;119944;1190;25170;-58
2023/03/06 09:55:03;;;;;;;;;11.50;10.00;;;;;;;;120132;1181;25526;-58
2023/03/06 09:57:56;;;;;;;;;12.50;9.00;;;;;;;;120117;1181;25414;-58
2023/03/06 10:00:36;;;;;;;;;11.33;9.33;;;;;;;;119982;1190;24989;-58
2023/03/06 10:03:25;;;;;;;;;11.00;10.25;;;;;;;;119948;1190;24955;-58
2023/03/06 10:05:58;;;;;;;;;10.00;9.50;;;;;;;;120114;1190;24668;-58
2023/03/06 10:08:52;;;;;;;;;11.25;10.50;;;;;;;;119964;1190;24951;-58
2023/03/06 10:11:44;;;;;;;;;11.00;9.75;;;;;;;;120125;1182;25464;-58
2023/03/06 10:14:15;;;;;;;;;8.67;8.33;;;;;;;;119954;1183;24894;-58
2023/03/06 10:16:43;;;;;;;;;10.67;9.33;;;;;;;;120130;1182;25115;-58
2023/03/06 10:19:19;;;;;;;;;10.50;10.00;;;;;;;;119932;1190;25371;-58
2023/03/06 10:22:01;;;;;;;;;13.75;10.25;;;;;;;;119909;1190;24914;-58
2023/03/06 10:24:45;;;;;;;;;12.00;11.00;;;;;;;;119941;1190;25299;-58
2023/03/06 10:27:36;;;;;;;;;11.50;11.50;;;;;;;;119909;1190;24947;-58
2023/03/06 10:30:13;;;;;;;;;14.50;10.00;;;;;;;;119927;1190;25467;-58
2023/03/06 10:32:50;;;;;;;;;10.75;8.25;;;;;;;;120089;1189;25448;-58
2023/03/06 10:35:21;;;;;;;;;10.50;10.00;;;;;;;;120120;1189;24840;-58
2023/03/06 10:37:50;;;;;;;;;13.00;9.67;;;;;;;;119908;1190;25625;-58
2023/03/06 10:40:20;;;;;;;;;8.67;7.00;;;;;;;;119905;1190;25430;-58
2023/03/06 10:42:48;;;;;;;;;8.00;8.00;;;;;;;;119938;1183;24789;-58
2023/03/06 10:45:46;;;;;;;;;12.00;10.50;;;;;;;;120125;1190;25260;-58
2023/03/06 10:48:22;;;;;;;;;14.00;9.67;;;;;;;;120113;1189;25381;-58
2023/03/06 10:50:53;;;;;;;;;9.33;6.33;;;;;;;;120126;1189;25439;-58
2023/03/06 10:53:25;;;;;;;;;9.25;9.25;;;;;;;;119960;1182;25310;-58
2023/03/06 10:55:55;;;;;;;;;16.50;10.50;;;;;;;;120117;1182;25682;-57
2023/03/06 10:58:30;;;;;;;;;11.25;7.75;;;;;;;;119939;1190;25578;-58
2023/03/06 11:01:25;;;;;;;;;10.33;8.00;;;;;;;;119958;1182;25526;-58
2023/03/06 11:04:24;;;;;;;;;13.50;11.75;;;;;;;;119929;1182;24986;-58
2023/03/06 11:07:05;;;;;;;;;10.00;8.75;;;;;;;;119935;1190;25460;-58
2023/03/06 11:09:34;;;;;;;;;11.33;10.00;;;;;;;;119912;1190;25531;-58
2023/03/06 11:12:20;;;;;;;;;11.00;10.00;;;;;;;;119870;1182;25508;-58
2023/03/06 11:15:06;;;;;;;;;9.75;7.50;;;;;;;;119916;1190;25452;-58
2023/03/06 11:17:37;;;;;;;;;11.50;8.75;;;;;;;;119947;1182;24665;-58
2023/03/06 11:20:19;;;;;;;;;10.00;9.50;;;;;;;;119940;1182;25158;-58
2023/03/06 11:22:54;;;;;;;;;10.25;9.50;;;;;;;;119897;1190;24877;-58
2023/03/06 11:25:28;;;;;;;;;10.50;8.25;;;;;;;;119925;1190;24806;-58
2023/03/06 11:28:06;;;;;;;;;8.25;7.00;;;;;;;;119906;1190;25250;-58
2023/03/06 11:30:44;;;;;;;;;10.00;9.00;;;;;;;;119889;1190;25586;-58
2023/03/06 11:33:29;;;;;;;;;9.00;8.00;;;;;;;;119940;1190;25026;-58
2023/03/06 11:36:03;;;;;;;;;11.25;9.25;;;;;;;;119903;1190;25218;-58
2023/03/06 11:38:51;;;;;;;;;14.33;11.00;;;;;;;;119945;1182;25740;-58
2023/03/06 11:41:30;;;;;;;;;12.33;8.67;;;;;;;;119720;1183;25382;-58
2023/03/06 11:44:14;;;;;;;;;8.75;7.75;;;;;;;;119874;1190;25475;-58
2023/03/06 11:46:47;;;;;;;;;9.00;9.00;;;;;;;;119927;1190;25269;-58
2023/03/06 11:49:33;;;;;;;;;8.25;8.25;;;;;;;;119926;1190;25527;-58
2023/03/06 11:52:11;;;;;;;;;9.50;8.25;;;;;;;;119909;1182;24900;-58
2023/03/06 11:54:40;;;;;;;;;11.33;10.00;;;;;;;;119894;1190;24700;-58
2023/03/06 11:57:23;;;;;;;;;9.50;8.50;;;;;;;;119917;1190;25323;-58
2023/03/06 12:00:03;;;;;;;;;10.00;8.75;;;;;;;;119910;1190;24910;-58
2023/03/06 12:02:52;;;;;;;;;9.00;6.00;;;;;;;;119944;1181;25091;-58
2023/03/06 12:05:35;;;;;;;;;12.50;11.00;;;;;;;;119929;1190;25531;-58
2023/03/06 12:08:24;;;;;;;;;9.50;8.25;;;;;;;;119891;1190;25189;-58
2023/03/06 12:11:30;;;;;;;;;7.00;7.00;;;;;;;;119914;1190;25102;-58
2023/03/06 12:14:04;;;;;;;;;9.00;8.00;;;;;;;;119854;1190;24944;-58
2023/03/06 12:16:43;;;;;;;;;8.00;8.00;;;;;;;;119940;1183;25316;-58
2023/03/06 12:19:14;;;;;;;;;8.67;6.67;;;;;;;;119935;1190;25368;-58
2023/03/06 12:22:02;;;;;;;;;8.67;8.00;;;;;;;;119925;1190;24847;-58
2023/03/06 12:24:39;;;;;;;;;7.50;7.00;;;;;;;;119935;1190;25790;-58
2023/03/06 12:27:16;;;;;;;;;7.50;5.00;;;;;;;;119925;1190;25502;-58
2023/03/06 12:29:56;;;;;;;;;7.67;7.00;;;;;;;;119941;1186;24700;-58
2023/03/06 12:32:33;;;;;;;;;9.00;7.25;;;;;;;;119923;1190;24880;-58
2023/03/06 12:35:27;;;;;;;;;8.00;7.00;;;;;;;;119920;1190;25658;-58
2023/03/06 12:38:06;;;;;;;;;7.00;5.00;;;;;;;;119890;1190;24831;-58
2023/03/06 12:41:08;;;;;;;;;11.25;8.25;;;;;;;;119897;1182;25189;-58
2023/03/06 12:43:53;;;;;;;;;7.00;7.00;;;;;;;;119954;1181;24797;-58
2023/03/06 12:46:23;;;;;;;;;11.50;9.00;;;;;;;;119915;1182;25601;-58
2023/03/06 12:49:24;;;;;;;;;6.25;6.25;;;;;;;;119879;1190;24911;-58
2023/03/06 12:52:01;;;;;;;;;8.25;6.75;;;;;;;;119894;1182;25269;-58
2023/03/06 12:54:31;;;;;;;;;7.00;6.00;;;;;;;;119897;1190;25279;-58
2023/03/06 12:56:59;;;;;;;;;11.33;8.00;;;;;;;;119930;1190;24864;-58
2023/03/06 12:59:46;;;;;;;;;10.50;10.00;;;;;;;;119920;1182;25548;-58
2023/03/06 13:02:52;;;;;;;;;8.25;8.25;;;;;;;;120255;1177;24794;-58
2023/03/06 13:06:06;;;;;;;;;5.00;5.00;;;;;;;;119866;1190;24910;-58
2023/03/06 13:08:51;;;;;;;;;6.67;6.67;;;;;;;;119487;1193;25115;-58
2023/03/06 13:11:57;;;;;;;;;7.00;7.00;;;;;;;;119905;1190;25241;-58
2023/03/06 13:14:50;;;;;;;;;6.33;5.67;;;;;;;;119916;1182;25084;-58
2023/03/06 13:17:21;;;;;;;;;10.25;9.00;;;;;;;;119904;1190;25216;-58
2023/03/06 13:20:13;;;;;;;;;6.67;5.00;;;;;;;;119945;1182;25297;-58
2023/03/06 13:22:42;;;;;;;;;11.00;7.00;;;;;;;;119902;1190;24975;-58
2023/03/06 13:25:20;;;;;;;;;6.75;6.75;;;;;;;;119932;1183;25621;-58
2023/03/06 13:27:51;;;;;;;;;10.75;8.00;;;;;;;;119915;1190;24885;-58
2023/03/06 13:30:40;;;;;;;;;9.75;9.00;;;;;;;;119926;1190;24825;-58
2023/03/06 13:33:28;;;;;;;;;9.00;8.25;;;;;;;;119931;1190;24732;-58
2023/03/06 13:35:58;;;;;;;;;10.50;6.50;;;;;;;;119894;1190;25125;-58
2023/03/06 13:38:39;;;;;;;;;7.75;7.25;;;;;;;;119904;1182;24850;-58
2023/03/06 13:41:20;;;;;;;;;8.50;5.25;;;;;;;;119911;1190;25524;-58
2023/03/06 13:43:53;;;;;;;;;6.00;6.00;;;;;;;;119920;1182;25027;-59
2023/03/06 13:46:36;;;;;;;;;9.00;7.25;;;;;;;;119921;1182;25713;-58
2023/03/06 13:49:07;;;;;;;;;6.50;6.50;;;;;;;;119716;1190;25498;-58
2023/03/06 13:51:41;;;;;;;;;9.00;8.00;;;;;;;;119934;1190;24870;-58
2023/03/06 13:54:30;;;;;;;;;7.00;6.67;;;;;;;;119933;1190;25551;-58
2023/03/06 13:57:23;;;;;;;;;8.67;8.67;;;;;;;;119899;1190;25646;-58
2023/03/06 14:00:10;;;;;;;;;9.00;6.33;;;;;;;;119885;1190;25304;-58
2023/03/06 14:03:06;;;;;;;;;5.50;5.00;;;;;;;;119930;1190;25380;-58
2023/03/06 14:05:46;;;;;;;;;7.67;5.33;;;;;;;;119928;1190;24900;-59
2023/03/06 14:08:20;;;;;;;;;7.75;6.25;;;;;;;;119917;1190;25366;-58
2023/03/06 14:11:18;;;;;;;;;9.33;8.33;;;;;;;;119901;1190;24925;-58
2023/03/06 14:13:52;;;;;;;;;11.00;9.00;;;;;;;;119895;1190;25231;-58
2023/03/06 14:16:26;;;;;;;;;10.00;6.00;;;;;;;;119925;1190;26129;-58
2023/03/06 14:19:07;;;;;;;;;9.00;6.75;;;;;;;;119885;1190;25639;-58
2023/03/06 14:21:45;;;;;;;;;10.00;8.00;;;;;;;;119936;1190;25636;-55
2023/03/06 14:24:15;;;;;;;;;8.00;6.00;;;;;;;;119888;1191;24969;-58
2023/03/06 14:26:50;;;;;;;;;7.50;7.00;;;;;;;;119908;1181;24791;-58
2023/03/06 14:29:26;;;;;;;;;7.50;7.00;;;;;;;;119908;1182;25701;-58
2023/03/06 14:31:56;;;;;;;;;9.00;6.33;;;;;;;;119935;1189;25493;-58
2023/03/06 14:34:30;;;;;;;;;7.00;6.50;;;;;;;;119947;1181;25435;-58
2023/03/06 14:37:04;;;;;;;;;6.75;6.00;;;;;;;;119935;1182;25506;-58
2023/03/06 14:39:35;;;;;;;;;10.75;8.00;;;;;;;;119922;1190;25669;-58
2023/03/06 14:42:07;;;;;;;;;7.00;7.00;;;;;;;;119911;1190;24821;-58
2023/03/06 14:44:35;;;;;;;;;6.75;6.75;;;;;;;;119937;1190;24935;-58
2023/03/06 14:47:22;;;;;;;;;7.00;7.00;;;;;;;;119920;1190;25178;-58
2023/03/06 14:50:18;;;;;;;;;4.67;4.67;;;;;;;;119891;1190;25328;-58